createdAt,value
2022-09-27T00:00:49.336Z,23.05
2022-09-27T00:03:40.206Z,21.98
2022-09-27T00:06:20.640Z,23.58
2022-09-27T00:12:49.285Z,35.28
2022-09-27T00:16:18.820Z,23.85
2022-09-27T00:24:09.703Z,24.55
2022-09-27T00:27:03.036Z,26.55
2022-09-27T00:29:46.460Z,25.60
2022-09-27T00:32:18.580Z,29.30
2022-09-27T00:35:54.331Z,24.83
2022-09-27T00:39:08.029Z,25.83
2022-09-27T00:42:20.952Z,26.80
2022-09-27T00:51:38.509Z,27.70
2022-09-27T01:05:37.329Z,26.30
2022-09-27T01:08:06.466Z,25.40
2022-09-27T01:10:56.476Z,25.45
2022-09-27T01:13:35.197Z,28.15
2022-09-27T01:16:15.742Z,27.80
2022-09-27T01:19:04.198Z,27.50
2022-09-27T01:21:54.343Z,26.95
2022-09-27T01:24:48.498Z,27.55
2022-09-27T01:28:00.737Z,26.20
2022-09-27T01:30:42.000Z,26.23
2022-09-27T01:33:19.641Z,29.00
2022-09-27T01:36:12.401Z,26.98
2022-09-27T01:39:31.621Z,27.83
2022-09-27T01:42:34.031Z,26.20
2022-09-27T01:45:07.634Z,25.45
2022-09-27T01:47:59.610Z,25.00
2022-09-27T01:51:15.266Z,24.85
2022-09-27T01:53:48.804Z,27.40
2022-09-27T01:56:31.714Z,26.23
2022-09-27T01:59:12.436Z,26.95
2022-09-27T02:02:04.145Z,26.52
2022-09-27T02:05:10.787Z,28.63
2022-09-27T02:07:55.167Z,28.50
2022-09-27T02:10:34.675Z,28.30
2022-09-27T02:13:28.489Z,30.15
2022-09-27T02:19:08.482Z,28.87
2022-09-27T02:22:10.511Z,29.02
2022-09-27T02:24:47.538Z,31.38
2022-09-27T02:27:25.162Z,29.08
2022-09-27T02:30:07.010Z,29.45
2022-09-27T02:32:40.779Z,28.80
2022-09-27T02:35:31.680Z,29.27
2022-09-27T02:38:02.213Z,29.48
2022-09-27T02:40:33.949Z,31.98
2022-09-27T02:43:16.319Z,28.23
2022-09-27T02:45:48.017Z,29.75
2022-09-27T02:48:21.753Z,29.70
2022-09-27T02:51:06.986Z,27.63
2022-09-27T02:53:46.044Z,29.25
2022-09-27T02:56:49.258Z,29.00
2022-09-27T02:59:39.206Z,30.15
2022-09-27T03:03:02.954Z,30.75
2022-09-27T03:05:45.066Z,29.17
2022-09-27T03:08:16.336Z,28.77
2022-09-27T03:10:51.741Z,29.40
2022-09-27T03:13:20.379Z,28.20
2022-09-27T03:16:03.145Z,30.17
2022-09-27T03:18:59.149Z,29.73
2022-09-27T03:22:06.219Z,29.95
2022-09-27T03:24:35.155Z,29.00
2022-09-27T03:27:04.182Z,28.38
2022-09-27T03:29:35.704Z,27.33
2022-09-27T03:32:12.016Z,28.73
2022-09-27T03:35:15.925Z,26.17
2022-09-27T03:37:47.459Z,32.05
2022-09-27T03:40:18.468Z,27.63
2022-09-27T03:42:49.796Z,27.23
2022-09-27T03:45:20.115Z,27.40
2022-09-27T03:47:52.741Z,26.90
2022-09-27T03:50:25.020Z,28.00
2022-09-27T03:53:01.143Z,28.65
2022-09-27T03:55:39.706Z,26.90
2022-09-27T03:58:12.362Z,27.30
2022-09-27T04:00:44.256Z,30.48
2022-09-27T04:03:13.633Z,27.35
2022-09-27T04:06:03.699Z,25.73
2022-09-27T04:08:41.125Z,26.13
2022-09-27T04:11:17.910Z,28.05
2022-09-27T04:13:49.750Z,29.38
2022-09-27T04:16:21.732Z,24.92
2022-09-27T04:19:16.651Z,24.90
2022-09-27T04:22:03.098Z,23.45
2022-09-27T04:24:34.205Z,24.17
2022-09-27T04:27:23.801Z,23.50
2022-09-27T04:30:03.840Z,26.58
2022-09-27T04:32:57.068Z,25.75
2022-09-27T04:36:03.195Z,30.02
2022-09-27T04:38:33.611Z,41.97
2022-09-27T04:41:05.598Z,23.02
2022-09-27T04:43:56.775Z,28.10
2022-09-27T04:46:31.892Z,23.98
2022-09-27T04:49:06.387Z,22.88
2022-09-27T04:51:38.659Z,22.73
2022-09-27T04:54:15.552Z,21.00
2022-09-27T04:56:56.381Z,24.75
2022-09-27T04:59:28.117Z,23.15
2022-09-27T05:02:03.210Z,23.95
2022-09-27T05:04:47.245Z,24.65
2022-09-27T05:07:23.421Z,23.77
2022-09-27T05:10:09.116Z,25.05
2022-09-27T05:12:44.023Z,23.63
2022-09-27T05:15:18.515Z,24.10
2022-09-27T05:17:49.107Z,27.17
2022-09-27T05:20:41.290Z,23.73
2022-09-27T05:23:25.636Z,25.02
2022-09-27T05:26:33.774Z,23.67
2022-09-27T05:29:12.288Z,23.25
2022-09-27T05:31:44.800Z,22.10
2022-09-27T05:34:13.440Z,23.13
2022-09-27T05:36:50.491Z,22.35
2022-09-27T05:39:28.309Z,21.95
2022-09-27T05:42:01.226Z,22.70
2022-09-27T05:44:29.955Z,22.35
2022-09-27T05:47:07.027Z,23.23
2022-09-27T05:49:37.335Z,23.33
2022-09-27T05:52:10.959Z,24.85
2022-09-27T05:54:42.265Z,25.45
2022-09-27T05:57:11.851Z,23.92
2022-09-27T05:59:48.188Z,24.77
2022-09-27T06:02:38.578Z,32.83
2022-09-27T06:05:10.949Z,58.45
2022-09-27T06:07:44.554Z,26.75
2022-09-27T06:10:23.929Z,31.20
2022-09-27T06:12:59.339Z,41.47
2022-09-27T06:15:39.354Z,27.38
2022-09-27T06:18:12.935Z,24.35
2022-09-27T06:20:43.508Z,23.63
2022-09-27T06:23:15.183Z,22.98
2022-09-27T06:25:47.221Z,24.00
2022-09-27T06:28:35.879Z,26.00
2022-09-27T06:31:09.211Z,28.40
2022-09-27T06:33:53.394Z,25.40
2022-09-27T06:36:23.486Z,28.70
2022-09-27T06:38:51.915Z,24.35
2022-09-27T06:41:29.793Z,26.02
2022-09-27T06:44:17.326Z,25.55
2022-09-27T06:47:17.787Z,26.25
2022-09-27T06:50:05.948Z,24.95
2022-09-27T06:52:49.076Z,23.98
2022-09-27T06:55:17.765Z,23.08
2022-09-27T06:58:05.264Z,22.77
2022-09-27T07:00:33.959Z,26.30
2022-09-27T07:03:38.921Z,22.83
2022-09-27T07:06:40.647Z,24.52
2022-09-27T07:09:28.266Z,22.75
2022-09-27T07:11:58.898Z,24.45
2022-09-27T07:14:34.091Z,22.38
2022-09-27T07:17:04.581Z,20.63
2022-09-27T07:19:41.360Z,21.23
2022-09-27T07:22:14.687Z,21.25
2022-09-27T07:24:45.989Z,22.63
2022-09-27T07:27:15.980Z,22.27
2022-09-27T07:29:52.162Z,20.08
2022-09-27T07:32:21.391Z,20.13
2022-09-27T07:34:59.295Z,20.27
2022-09-27T07:37:30.346Z,20.92
2022-09-27T07:40:01.051Z,21.90
2022-09-27T07:42:39.186Z,21.30
2022-09-27T07:45:10.414Z,20.63
2022-09-27T07:48:21.341Z,21.30
2022-09-27T07:51:04.570Z,20.92
2022-09-27T07:54:07.900Z,21.20
2022-09-27T07:56:38.392Z,22.63
2022-09-27T07:59:13.067Z,20.73
2022-09-27T08:01:49.812Z,21.00
2022-09-27T08:04:21.204Z,21.30
2022-09-27T08:06:50.306Z,21.73
2022-09-27T08:09:24.276Z,21.48
2022-09-27T08:12:00.237Z,21.50
2022-09-27T08:14:31.357Z,21.88
2022-09-27T08:17:00.293Z,21.58
2022-09-27T08:19:30.262Z,20.85
2022-09-27T08:22:08.857Z,23.45
2022-09-27T08:24:49.625Z,22.60
2022-09-27T08:27:26.703Z,23.52
2022-09-27T08:30:00.958Z,42.40
2022-09-27T08:32:31.038Z,22.25
2022-09-27T08:35:06.589Z,23.05
2022-09-27T08:37:37.411Z,23.23
2022-09-27T08:40:18.603Z,27.35
2022-09-27T08:43:03.509Z,26.00
2022-09-27T08:45:41.541Z,26.27
2022-09-27T08:48:12.204Z,27.95
2022-09-27T08:51:05.456Z,30.73
2022-09-27T08:53:42.807Z,25.38
2022-09-27T08:56:14.211Z,24.52
2022-09-27T08:59:07.922Z,26.25
2022-09-27T09:01:42.253Z,28.23
2022-09-27T09:04:30.088Z,26.95
2022-09-27T09:07:13.498Z,26.83
2022-09-27T09:09:56.934Z,28.40
2022-09-27T09:12:56.983Z,32.28
2022-09-27T09:19:12.444Z,32.83
2022-09-27T09:22:17.198Z,32.55
2022-09-27T09:25:07.546Z,36.95
2022-09-27T09:27:59.007Z,35.17
2022-09-27T09:30:48.644Z,35.10
2022-09-27T09:33:24.365Z,35.90
2022-09-27T09:36:07.245Z,36.22
2022-09-27T09:38:59.319Z,36.15
2022-09-27T09:41:54.056Z,36.65
2022-09-27T09:44:29.068Z,35.28
2022-09-27T09:47:09.358Z,35.60
2022-09-27T09:49:48.260Z,40.78
2022-09-27T09:52:25.345Z,45.60
2022-09-27T09:55:21.506Z,39.17
2022-09-27T09:57:59.652Z,39.65
2022-09-27T10:00:32.653Z,33.47
2022-09-27T10:03:06.071Z,34.30
2022-09-27T10:05:36.817Z,31.95
2022-09-27T10:08:18.766Z,32.72
2022-09-27T10:10:52.296Z,32.50
2022-09-27T10:13:27.018Z,31.17
2022-09-27T10:16:06.465Z,29.73
2022-09-27T10:18:47.632Z,30.23
2022-09-27T10:21:30.871Z,28.35
2022-09-27T10:24:25.669Z,27.80
2022-09-27T10:27:07.649Z,25.67
2022-09-27T10:29:39.798Z,24.80
2022-09-27T10:32:36.231Z,26.90
2022-09-27T10:35:30.618Z,24.80
2022-09-27T10:38:18.160Z,25.70
2022-09-27T10:40:53.181Z,28.52
2022-09-27T10:43:41.131Z,24.15
2022-09-27T10:46:34.966Z,27.17
2022-09-27T10:49:40.703Z,24.75
2022-09-27T10:52:28.570Z,27.33
2022-09-27T10:55:08.549Z,24.55
2022-09-27T10:57:45.157Z,30.00
2022-09-27T11:00:32.583Z,26.20
2022-09-27T11:03:08.150Z,31.70
2022-09-27T11:05:39.743Z,30.63
2022-09-27T11:08:30.256Z,30.35
2022-09-27T11:11:29.050Z,27.48
2022-09-27T11:14:08.989Z,25.73
2022-09-27T11:17:09.760Z,24.27
2022-09-27T11:20:03.813Z,28.95
2022-09-27T11:23:08.083Z,31.50
2022-09-27T11:26:02.913Z,26.90
2022-09-27T11:29:14.025Z,31.88
2022-09-27T11:32:44.512Z,31.05
2022-09-27T11:35:47.589Z,27.95
2022-09-27T11:38:52.215Z,29.70
2022-09-27T11:41:30.587Z,27.95
2022-09-27T11:44:24.774Z,22.88
2022-09-27T11:47:23.689Z,24.00
2022-09-27T11:50:11.391Z,23.90
2022-09-27T11:53:11.440Z,27.48
2022-09-27T11:55:52.069Z,22.77
2022-09-27T11:58:42.103Z,34.88
2022-09-27T12:01:42.726Z,22.15
2022-09-27T12:04:34.304Z,21.27
2022-09-27T12:07:23.215Z,22.38
2022-09-27T12:10:18.213Z,23.08
2022-09-27T12:12:56.046Z,21.58
2022-09-27T12:15:32.629Z,21.30
2022-09-27T12:18:26.317Z,23.02
2022-09-27T12:21:00.729Z,24.33
2022-09-27T12:23:40.093Z,24.50
2022-09-27T12:26:43.087Z,26.53
2022-09-27T12:29:18.539Z,25.58
2022-09-27T12:32:04.361Z,25.98
2022-09-27T12:34:48.088Z,22.45
2022-09-27T12:37:58.930Z,21.85
2022-09-27T12:40:37.573Z,22.38
2022-09-27T12:43:26.471Z,22.00
2022-09-27T12:46:25.317Z,24.17
2022-09-27T12:49:39.618Z,22.75
2022-09-27T12:52:22.818Z,25.83
2022-09-27T12:55:17.272Z,24.45
2022-09-27T12:58:15.360Z,22.52
2022-09-27T13:01:33.979Z,24.50
2022-09-27T13:04:22.278Z,24.45
2022-09-27T13:07:13.371Z,23.30
2022-09-27T13:10:29.544Z,24.13
2022-09-27T13:13:02.918Z,24.75
2022-09-27T13:15:34.511Z,24.17
2022-09-27T13:18:47.989Z,25.92
2022-09-27T13:21:52.351Z,25.17
2022-09-27T13:24:54.463Z,26.65
2022-09-27T13:27:54.517Z,33.03
2022-09-27T13:30:40.673Z,27.85
2022-09-27T13:33:49.967Z,27.50
2022-09-27T13:36:40.430Z,28.02
2022-09-27T13:39:14.874Z,31.65
2022-09-27T13:42:35.516Z,32.05
2022-09-27T13:45:24.916Z,33.17
2022-09-27T13:48:12.201Z,27.92
2022-09-27T13:51:00.315Z,26.95
2022-09-27T13:53:39.342Z,33.05
2022-09-27T13:56:48.182Z,29.67
2022-09-27T13:59:44.456Z,29.20
2022-09-27T14:02:43.488Z,30.83
2022-09-27T14:05:18.389Z,25.52
2022-09-27T14:07:49.328Z,24.75
2022-09-27T14:13:16.253Z,25.67
2022-09-27T14:15:58.718Z,20.67
2022-09-27T14:18:44.173Z,25.13
2022-09-27T14:21:33.145Z,22.58
2022-09-27T14:24:51.211Z,25.77
2022-09-27T14:30:35.672Z,24.27
2022-09-27T14:33:32.839Z,22.67
2022-09-27T14:36:37.026Z,21.20
2022-09-27T14:39:27.004Z,20.02
2022-09-27T14:41:57.518Z,19.48
2022-09-27T14:44:28.361Z,16.70
2022-09-27T14:47:09.700Z,22.05
2022-09-27T14:49:51.608Z,20.38
2022-09-27T14:52:29.309Z,20.98
2022-09-27T14:55:21.200Z,18.45
2022-09-27T14:57:58.628Z,17.05
2022-09-27T15:00:34.964Z,17.40
2022-09-27T15:03:09.373Z,22.00
2022-09-27T15:05:43.671Z,19.90
2022-09-27T15:08:15.837Z,17.80
2022-09-27T15:10:46.730Z,17.65
2022-09-27T15:13:28.840Z,15.13
2022-09-27T15:16:35.200Z,14.23
2022-09-27T15:36:45.018Z,15.88
2022-09-27T15:39:28.471Z,20.20
2022-09-27T15:42:11.378Z,20.23
2022-09-27T15:44:50.838Z,18.98
2022-09-27T15:47:59.667Z,22.67
2022-09-27T15:50:48.558Z,32.65
2022-09-27T15:53:36.080Z,18.50
2022-09-27T15:56:09.149Z,16.67
2022-09-27T15:58:42.077Z,17.13
2022-09-27T16:01:44.549Z,16.83
2022-09-27T16:04:59.954Z,15.88
2022-09-27T16:08:16.823Z,17.25
2022-09-27T16:10:55.474Z,20.17
2022-09-27T16:19:53.393Z,22.33
2022-09-27T16:29:58.489Z,21.52
2022-09-27T16:32:48.511Z,28.00
2022-09-27T16:35:30.051Z,19.95
2022-09-27T16:46:19.630Z,32.72
2022-09-27T16:58:35.345Z,47.00
2022-09-27T17:15:15.007Z,28.88
2022-09-27T17:18:34.935Z,28.80
2022-09-27T17:24:14.538Z,45.83
2022-09-27T17:39:19.323Z,30.80
2022-09-27T17:42:35.630Z,26.83
2022-09-27T17:45:06.266Z,31.80
2022-09-27T17:48:04.536Z,33.72
2022-09-27T17:50:39.866Z,28.88
2022-09-27T17:53:16.931Z,35.58
2022-09-27T17:55:45.904Z,28.92
2022-09-27T18:05:46.241Z,35.10
2022-09-27T18:08:21.761Z,29.17
2022-09-27T18:35:29.493Z,19.98
2022-09-27T18:37:59.126Z,43.83
2022-09-27T18:40:57.616Z,27.42
2022-09-27T18:43:29.263Z,20.45
2022-09-27T18:46:23.843Z,25.20
2022-09-27T18:49:16.965Z,22.85
2022-09-27T18:51:54.695Z,19.58
2022-09-27T18:54:41.081Z,18.95
2022-09-27T18:57:11.874Z,20.65
2022-09-27T19:06:20.271Z,19.60
2022-09-27T19:15:27.557Z,18.98
2022-09-27T19:18:04.616Z,17.52
2022-09-27T19:23:28.216Z,17.65
2022-09-27T19:26:16.089Z,16.23
2022-09-27T19:29:04.453Z,16.17
2022-09-27T19:31:44.245Z,16.92
2022-09-27T19:34:14.392Z,16.33
2022-09-27T19:36:46.536Z,15.23
2022-09-27T19:39:15.954Z,15.25
2022-09-27T19:41:52.874Z,17.30
2022-09-27T19:44:22.814Z,15.50
2022-09-27T19:46:51.702Z,16.58
2022-09-27T19:49:20.621Z,17.05
2022-09-27T19:51:52.375Z,17.77
2022-09-27T19:54:22.541Z,15.25
2022-09-27T19:56:51.665Z,17.65
2022-09-27T19:59:24.938Z,15.57
2022-09-27T20:01:59.992Z,17.15
2022-09-27T20:04:42.448Z,18.80
2022-09-27T20:07:18.839Z,17.88
2022-09-27T20:16:19.367Z,18.77
2022-09-27T20:18:52.679Z,18.73
2022-09-27T20:21:34.090Z,19.50
2022-09-27T20:24:12.535Z,19.88
2022-09-27T20:26:45.455Z,20.70
2022-09-27T20:29:18.779Z,21.10
2022-09-27T20:32:25.496Z,19.63
2022-09-27T20:34:46.325Z,19.60
2022-09-27T20:37:17.360Z,19.67
2022-09-27T20:39:50.403Z,18.73
2022-09-27T20:42:21.466Z,18.77
2022-09-27T20:44:57.270Z,20.08
2022-09-27T20:47:39.863Z,21.48
2022-09-27T20:53:00.686Z,20.40
2022-09-27T20:55:39.138Z,21.17
2022-09-27T20:58:12.369Z,20.02
2022-09-27T21:00:42.142Z,22.92
2022-09-27T21:03:16.267Z,21.20
2022-09-27T21:06:00.649Z,22.08
2022-09-27T21:08:40.758Z,20.98
2022-09-27T21:11:25.459Z,19.38
2022-09-27T21:13:56.476Z,19.77
2022-09-27T21:16:34.917Z,20.45
2022-09-27T21:19:05.140Z,20.63
2022-09-27T21:21:46.147Z,21.23
2022-09-27T21:24:32.387Z,19.77
2022-09-27T21:27:21.204Z,20.85
2022-09-27T21:30:06.518Z,20.40
2022-09-27T21:32:38.285Z,20.52
2022-09-27T21:35:12.539Z,24.10
2022-09-27T21:37:47.363Z,27.52
2022-09-27T21:40:27.524Z,25.77
2022-09-27T21:42:57.988Z,28.48
2022-09-27T21:45:30.820Z,28.05
2022-09-27T21:48:01.135Z,27.95
2022-09-27T21:50:37.126Z,27.63
2022-09-27T21:53:08.491Z,28.97
2022-09-27T21:55:56.884Z,33.17
2022-09-27T21:58:38.626Z,25.88
2022-09-27T22:01:30.460Z,25.90
2022-09-27T22:04:10.935Z,25.45
2022-09-27T22:06:40.508Z,23.75
2022-09-27T22:09:14.221Z,26.92
2022-09-27T22:11:48.091Z,27.60
2022-09-27T22:14:20.840Z,23.80
2022-09-27T22:16:59.868Z,26.70
2022-09-27T22:19:36.366Z,27.02
2022-09-27T22:22:05.472Z,28.25
2022-09-27T22:24:35.959Z,24.40
2022-09-27T22:27:13.706Z,21.70
2022-09-27T22:29:45.583Z,23.50
2022-09-27T22:32:18.553Z,20.90
2022-09-27T22:34:53.710Z,21.85
2022-09-27T22:37:29.423Z,20.27
2022-09-27T22:40:07.430Z,21.00
2022-09-27T22:42:45.532Z,22.52
2022-09-27T22:45:24.614Z,23.13
2022-09-27T22:48:02.194Z,24.33
2022-09-27T22:50:38.575Z,25.98
2022-09-27T22:53:09.911Z,24.23
2022-09-27T22:55:44.195Z,24.95
2022-09-27T22:58:21.917Z,27.60
2022-09-27T23:01:08.617Z,21.90
2022-09-27T23:03:50.960Z,23.25
2022-09-27T23:06:21.610Z,23.27
2022-09-27T23:08:58.358Z,21.52
2022-09-27T23:11:49.412Z,22.75
2022-09-27T23:14:33.967Z,22.45
2022-09-27T23:17:13.195Z,23.13
2022-09-27T23:19:50.498Z,20.38
2022-09-27T23:22:29.022Z,20.30
2022-09-27T23:25:17.104Z,21.92
2022-09-27T23:27:54.204Z,20.35
2022-09-27T23:30:33.434Z,19.92
2022-09-27T23:33:09.555Z,21.73
2022-09-27T23:35:41.720Z,20.77
2022-09-27T23:38:21.804Z,21.92
2022-09-27T23:40:55.308Z,21.35
2022-09-27T23:43:28.993Z,20.75
2022-09-27T23:46:14.695Z,20.55
2022-09-27T23:49:07.884Z,21.50
2022-09-27T23:51:42.658Z,22.25
2022-09-27T23:54:15.067Z,20.80
2022-09-27T23:56:53.842Z,21.38
2022-09-27T23:59:40.374Z,21.75
